createdAt,value
2022-10-18T00:02:11.983Z,83.70
2022-10-18T00:04:38.563Z,83.70
2022-10-18T00:07:05.243Z,83.80
2022-10-18T00:09:32.098Z,83.70
2022-10-18T00:11:58.791Z,83.70
2022-10-18T00:14:25.331Z,83.60
2022-10-18T00:16:51.931Z,83.60
2022-10-18T00:19:18.485Z,83.60
2022-10-18T00:24:16.587Z,83.50
2022-10-18T00:26:43.416Z,83.50
2022-10-18T00:29:13.222Z,83.40
2022-10-18T00:31:39.960Z,83.40
2022-10-18T00:34:11.155Z,83.40
2022-10-18T00:36:37.762Z,83.40
2022-10-18T00:39:06.034Z,83.40
2022-10-18T00:41:34.924Z,83.30
2022-10-18T00:44:27.557Z,83.30
2022-10-18T00:47:04.820Z,83.30
2022-10-18T00:49:44.450Z,83.30
2022-10-18T00:52:22.310Z,83.30
2022-10-18T00:54:50.482Z,83.20
2022-10-18T00:57:17.738Z,83.30
2022-10-18T00:59:45.966Z,83.20
2022-10-18T01:02:15.049Z,83.10
2022-10-18T01:04:41.630Z,83.10
2022-10-18T01:07:26.279Z,83.00
2022-10-18T01:10:23.306Z,82.90
2022-10-18T01:13:28.236Z,82.80
2022-10-18T01:16:00.214Z,82.70
2022-10-18T01:18:57.670Z,82.70
2022-10-18T01:21:30.128Z,82.70
2022-10-18T01:24:21.287Z,82.80
2022-10-18T01:27:19.564Z,82.90
2022-10-18T01:30:15.307Z,83.10
2022-10-18T01:32:47.198Z,83.10
2022-10-18T01:35:17.870Z,83.20
2022-10-18T01:37:47.819Z,83.20
2022-10-18T01:40:18.145Z,83.30
2022-10-18T01:42:47.251Z,83.30
2022-10-18T01:45:16.130Z,83.40
2022-10-18T01:47:47.094Z,83.40
2022-10-18T01:50:14.138Z,83.40
2022-10-18T01:52:51.000Z,83.40
2022-10-18T01:55:22.478Z,83.40
2022-10-18T01:58:17.462Z,83.50
2022-10-18T02:00:44.687Z,83.60
2022-10-18T02:03:22.198Z,83.50
2022-10-18T02:05:57.059Z,83.60
2022-10-18T02:08:38.595Z,83.50
2022-10-18T02:11:06.776Z,83.50
2022-10-18T02:13:51.876Z,83.50
2022-10-18T02:16:39.345Z,83.40
2022-10-18T02:19:10.547Z,83.30
2022-10-18T02:21:40.843Z,83.40
2022-10-18T02:24:09.279Z,83.40
2022-10-18T02:26:35.976Z,83.40
2022-10-18T02:29:02.856Z,83.40
2022-10-18T02:31:37.323Z,83.40
2022-10-18T02:34:24.263Z,83.40
2022-10-18T02:36:54.944Z,83.40
2022-10-18T02:39:30.894Z,83.30
2022-10-18T02:41:58.548Z,83.20
2022-10-18T02:44:25.334Z,83.20
2022-10-18T02:46:52.944Z,83.20
2022-10-18T02:49:19.544Z,83.30
2022-10-18T02:51:46.083Z,83.20
2022-10-18T02:54:12.619Z,83.20
2022-10-18T02:56:39.180Z,83.20
2022-10-18T02:59:07.320Z,83.10
2022-10-18T03:01:36.265Z,83.20
2022-10-18T03:04:04.095Z,83.10
2022-10-18T03:06:31.157Z,83.10
2022-10-18T03:08:57.782Z,83.00
2022-10-18T03:11:24.379Z,82.90
2022-10-18T03:13:51.046Z,83.00
2022-10-18T03:16:18.110Z,83.00
2022-10-18T03:18:44.676Z,83.00
2022-10-18T03:21:11.263Z,83.10
2022-10-18T03:23:37.863Z,83.10
2022-10-18T03:26:04.502Z,83.20
2022-10-18T03:28:31.124Z,83.20
2022-10-18T03:31:02.311Z,83.30
2022-10-18T03:33:29.646Z,83.30
2022-10-18T03:35:56.407Z,83.30
2022-10-18T03:38:23.022Z,83.40
2022-10-18T03:40:49.676Z,83.30
2022-10-18T03:43:16.259Z,83.30
2022-10-18T03:45:42.953Z,83.40
2022-10-18T03:48:09.538Z,83.40
2022-10-18T03:50:36.119Z,83.60
2022-10-18T03:53:02.868Z,83.60
2022-10-18T03:55:29.496Z,83.70
2022-10-18T03:57:56.087Z,83.70
2022-10-18T04:00:22.773Z,83.70
2022-10-18T04:02:52.079Z,83.70
2022-10-18T04:05:23.920Z,83.70
2022-10-18T04:07:50.712Z,83.70
2022-10-18T04:10:18.562Z,83.70
2022-10-18T04:12:45.135Z,83.70
2022-10-18T04:15:11.973Z,83.60
2022-10-18T04:17:38.539Z,83.60
2022-10-18T04:20:05.688Z,83.70
2022-10-18T04:22:32.264Z,83.70
2022-10-18T04:24:58.898Z,83.80
2022-10-18T04:27:25.555Z,83.80
2022-10-18T04:29:52.173Z,83.80
2022-10-18T04:32:18.804Z,83.70
2022-10-18T04:34:45.393Z,83.70
2022-10-18T04:37:11.992Z,83.70
2022-10-18T04:39:38.668Z,83.70
2022-10-18T04:42:05.363Z,83.60
2022-10-18T04:44:32.038Z,83.60
2022-10-18T04:46:59.303Z,83.50
2022-10-18T04:49:25.870Z,83.50
2022-10-18T04:51:52.426Z,83.50
2022-10-18T04:54:18.988Z,83.60
2022-10-18T04:56:45.545Z,83.60
2022-10-18T04:59:12.109Z,83.60
2022-10-18T05:01:38.745Z,83.60
2022-10-18T05:04:05.388Z,83.60
2022-10-18T05:06:32.007Z,83.60
2022-10-18T05:08:58.815Z,83.60
2022-10-18T05:11:25.389Z,84.40
2022-10-18T05:13:52.234Z,83.70
2022-10-18T05:16:18.869Z,83.70
2022-10-18T05:18:45.419Z,84.50
2022-10-18T05:21:12.411Z,83.80
2022-10-18T05:23:39.312Z,83.70
2022-10-18T05:26:07.183Z,83.70
2022-10-18T05:28:40.219Z,83.80
2022-10-18T05:31:09.751Z,83.80
2022-10-18T05:33:36.552Z,83.70
2022-10-18T05:36:03.708Z,83.70
2022-10-18T05:38:30.932Z,84.50
2022-10-18T05:40:58.470Z,83.60
2022-10-18T05:43:28.849Z,83.60
2022-10-18T05:45:55.671Z,83.70
2022-10-18T05:48:22.572Z,83.60
2022-10-18T05:50:49.145Z,83.60
2022-10-18T05:53:35.290Z,83.40
2022-10-18T05:56:03.108Z,83.30
2022-10-18T05:58:29.721Z,83.20
2022-10-18T06:01:00.004Z,83.10
2022-10-18T06:03:27.630Z,83.10
2022-10-18T06:05:59.529Z,83.00
2022-10-18T06:08:26.131Z,83.00
2022-10-18T06:10:52.816Z,83.00
2022-10-18T06:13:19.394Z,82.90
2022-10-18T06:15:46.004Z,82.90
2022-10-18T06:18:12.559Z,82.90
2022-10-18T06:20:39.134Z,82.90
2022-10-18T06:23:05.771Z,82.90
2022-10-18T06:25:32.375Z,82.80
2022-10-18T06:27:58.920Z,82.80
2022-10-18T06:30:25.580Z,82.70
2022-10-18T06:32:52.174Z,82.50
2022-10-18T06:35:18.743Z,82.60
2022-10-18T06:37:45.287Z,82.70
2022-10-18T06:40:12.204Z,82.70
2022-10-18T06:42:38.788Z,82.70
2022-10-18T06:45:06.100Z,82.70
2022-10-18T06:47:32.669Z,82.80
2022-10-18T06:49:59.782Z,82.70
2022-10-18T06:52:26.457Z,82.60
2022-10-18T06:54:53.752Z,82.60
2022-10-18T06:57:21.146Z,82.60
2022-10-18T06:59:47.740Z,82.60
2022-10-18T07:02:16.569Z,82.40
2022-10-18T07:04:43.595Z,82.50
2022-10-18T07:07:10.228Z,83.20
2022-10-18T07:09:36.872Z,82.40
2022-10-18T07:12:03.628Z,82.50
2022-10-18T07:14:30.179Z,82.40
2022-10-18T07:16:59.436Z,82.40
2022-10-18T07:19:26.055Z,82.50
2022-10-18T07:21:52.631Z,82.60
2022-10-18T07:24:19.174Z,82.60
2022-10-18T07:26:45.732Z,82.60
2022-10-18T07:29:13.191Z,82.70
2022-10-18T07:31:40.760Z,82.70
2022-10-18T07:34:08.651Z,82.80
2022-10-18T07:36:35.416Z,82.80
2022-10-18T07:39:02.011Z,82.90
2022-10-18T07:41:29.142Z,82.90
2022-10-18T07:43:55.695Z,82.90
2022-10-18T07:46:22.918Z,82.90
2022-10-18T07:48:50.094Z,83.00
2022-10-18T07:51:18.203Z,83.00
2022-10-18T07:53:45.075Z,83.10
2022-10-18T07:56:17.055Z,83.20
2022-10-18T07:58:44.528Z,83.30
2022-10-18T08:01:12.158Z,83.30
2022-10-18T08:03:40.739Z,83.40
2022-10-18T08:06:09.552Z,83.40
2022-10-18T08:08:38.389Z,83.50
2022-10-18T08:11:08.163Z,83.60
2022-10-18T08:13:34.786Z,83.60
2022-10-18T08:16:02.969Z,83.80
2022-10-18T08:18:30.360Z,83.90
2022-10-18T08:20:59.252Z,84.30
2022-10-18T08:23:25.990Z,84.20
2022-10-18T08:25:52.809Z,83.90
2022-10-18T08:28:19.436Z,83.50
2022-10-18T08:30:46.052Z,83.30
2022-10-18T08:33:12.723Z,83.20
2022-10-18T08:35:39.476Z,83.30
2022-10-18T08:38:13.875Z,83.30
2022-10-18T08:40:45.497Z,83.40
2022-10-18T08:46:01.314Z,83.60
2022-10-18T08:48:35.540Z,85.00
2022-10-18T08:51:04.342Z,85.20
2022-10-18T08:53:45.695Z,84.20
2022-10-18T08:56:15.831Z,83.00
2022-10-18T08:58:46.748Z,82.50
2022-10-18T09:01:31.420Z,83.40
2022-10-18T09:04:27.032Z,82.80
2022-10-18T09:06:56.424Z,82.40
2022-10-18T09:09:41.888Z,82.10
2022-10-18T09:12:36.417Z,82.50
2022-10-18T09:15:28.196Z,82.90
2022-10-18T09:18:18.221Z,82.90
2022-10-18T09:20:56.937Z,83.30
2022-10-18T09:23:43.928Z,81.90
2022-10-18T09:26:18.999Z,76.50
2022-10-18T09:29:09.440Z,70.70
2022-10-18T09:31:47.765Z,65.40
2022-10-18T09:34:26.484Z,62.90
2022-10-18T09:36:53.447Z,60.10
2022-10-18T09:39:25.580Z,57.80
2022-10-18T09:42:11.323Z,55.50
2022-10-18T09:44:46.792Z,53.70
2022-10-18T09:47:37.684Z,54.60
2022-10-18T09:50:24.052Z,52.70
2022-10-18T09:53:20.075Z,54.10
2022-10-18T09:56:03.549Z,55.00
2022-10-18T09:58:42.635Z,56.90
2022-10-18T10:01:11.771Z,58.10
2022-10-18T10:03:39.293Z,58.10
2022-10-18T10:06:11.901Z,58.90
2022-10-18T10:08:48.209Z,58.80
2022-10-18T10:11:47.914Z,59.30
2022-10-18T10:16:53.534Z,61.10
2022-10-18T10:19:27.935Z,60.60
2022-10-18T10:22:14.242Z,59.00
2022-10-18T10:24:50.721Z,59.50
2022-10-18T10:27:43.232Z,60.00
2022-10-18T10:30:37.504Z,60.00
2022-10-18T10:33:05.462Z,60.20
2022-10-18T10:35:53.168Z,60.20
2022-10-18T10:38:26.214Z,59.60
2022-10-18T10:40:53.954Z,59.80
2022-10-18T10:43:38.617Z,59.80
2022-10-18T10:46:18.863Z,59.90
2022-10-18T10:49:04.445Z,59.50
2022-10-18T10:51:43.526Z,59.70
2022-10-18T10:54:16.746Z,60.00
2022-10-18T10:57:01.618Z,60.60
2022-10-18T10:59:32.282Z,61.00
2022-10-18T11:02:21.551Z,61.00
2022-10-18T11:04:50.589Z,61.00
2022-10-18T11:07:35.620Z,61.30
2022-10-18T11:10:11.371Z,61.70
2022-10-18T11:13:01.399Z,62.00
2022-10-18T11:15:45.066Z,62.10
2022-10-18T11:18:22.105Z,63.10
2022-10-18T11:21:11.359Z,62.70
2022-10-18T11:23:40.516Z,62.30
2022-10-18T11:26:13.456Z,62.20
2022-10-18T11:28:58.361Z,62.00
2022-10-18T11:31:27.675Z,62.60
2022-10-18T11:34:17.521Z,62.90
2022-10-18T11:37:32.169Z,62.60
2022-10-18T11:40:22.827Z,62.90
2022-10-18T11:43:13.612Z,62.70
2022-10-18T11:46:02.388Z,61.80
2022-10-18T11:48:59.959Z,61.20
2022-10-18T11:51:55.938Z,61.20
2022-10-18T11:57:19.707Z,60.90
2022-10-18T12:00:29.005Z,61.10
2022-10-18T12:03:01.325Z,61.30
2022-10-18T12:05:29.399Z,60.80
2022-10-18T12:08:07.504Z,60.40
2022-10-18T12:10:53.215Z,60.30
2022-10-18T12:13:51.040Z,58.70
2022-10-18T12:16:33.793Z,57.20
2022-10-18T12:19:15.303Z,57.30
2022-10-18T12:21:43.530Z,57.10
2022-10-18T12:24:19.868Z,56.10
2022-10-18T12:26:49.837Z,56.00
2022-10-18T12:29:32.728Z,55.20
2022-10-18T12:32:22.189Z,54.10
2022-10-18T12:34:54.205Z,53.80
2022-10-18T12:37:50.400Z,53.60
2022-10-18T12:40:41.139Z,53.60
2022-10-18T12:43:10.730Z,54.00
2022-10-18T12:45:50.686Z,54.20
2022-10-18T12:48:39.422Z,53.70
2022-10-18T12:51:12.320Z,54.30
2022-10-18T12:53:39.707Z,54.40
2022-10-18T12:56:28.115Z,54.10
2022-10-18T12:59:16.419Z,54.20
2022-10-18T13:01:52.054Z,53.20
2022-10-18T13:04:27.710Z,53.10
2022-10-18T13:07:18.375Z,52.80
2022-10-18T13:10:07.790Z,52.60
2022-10-18T13:13:39.659Z,52.80
2022-10-18T13:16:13.732Z,52.30
2022-10-18T13:18:55.500Z,53.30
2022-10-18T13:21:40.209Z,53.10
2022-10-18T13:24:37.911Z,53.10
2022-10-18T13:27:36.429Z,54.00
2022-10-18T13:30:33.708Z,54.00
2022-10-18T13:33:16.929Z,54.20
2022-10-18T13:35:52.067Z,54.60
2022-10-18T13:38:33.519Z,54.20
2022-10-18T13:41:07.694Z,54.20
2022-10-18T13:43:52.987Z,54.80
2022-10-18T13:46:20.766Z,55.00
2022-10-18T13:48:49.832Z,55.10
2022-10-18T13:51:25.340Z,55.60
2022-10-18T13:54:07.319Z,55.80
2022-10-18T13:56:49.932Z,55.70
2022-10-18T13:59:44.400Z,56.00
2022-10-18T14:02:51.718Z,56.40
2022-10-18T14:05:33.795Z,56.70
2022-10-18T14:08:09.520Z,57.20
2022-10-18T14:11:02.082Z,57.30
2022-10-18T14:13:55.990Z,57.00
2022-10-18T14:16:42.774Z,57.40
2022-10-18T14:19:34.665Z,57.10
2022-10-18T14:22:22.500Z,56.80
2022-10-18T14:24:54.070Z,56.60
2022-10-18T14:27:24.840Z,57.70
2022-10-18T14:30:09.851Z,58.40
2022-10-18T14:32:36.598Z,58.40
2022-10-18T14:37:53.643Z,59.10
2022-10-18T14:40:39.434Z,58.40
2022-10-18T14:43:08.978Z,58.50
2022-10-18T14:45:35.543Z,58.60
2022-10-18T14:48:16.198Z,58.60
2022-10-18T14:50:46.175Z,58.90
2022-10-18T14:53:18.614Z,59.50
2022-10-18T14:55:55.389Z,59.70
2022-10-18T14:58:22.355Z,59.70
2022-10-18T15:00:49.205Z,59.90
2022-10-18T15:03:17.607Z,60.60
2022-10-18T15:06:02.216Z,60.80
2022-10-18T15:08:35.783Z,60.70
2022-10-18T15:11:02.666Z,60.90
2022-10-18T15:13:31.549Z,60.60
2022-10-18T15:15:59.067Z,60.70
2022-10-18T15:18:27.794Z,61.20
2022-10-18T15:21:20.133Z,61.30
2022-10-18T15:23:46.980Z,61.30
2022-10-18T15:26:20.880Z,61.90
2022-10-18T15:28:53.929Z,61.80
2022-10-18T15:31:25.577Z,61.80
2022-10-18T15:33:54.194Z,62.00
2022-10-18T15:36:29.523Z,61.80
2022-10-18T15:39:21.531Z,61.80
2022-10-18T15:42:02.246Z,62.20
2022-10-18T15:44:45.953Z,62.30
2022-10-18T15:47:12.465Z,62.70
2022-10-18T15:49:45.185Z,63.00
2022-10-18T15:52:23.680Z,63.40
2022-10-18T15:54:50.241Z,63.70
2022-10-18T15:57:18.541Z,63.90
2022-10-18T16:00:00.547Z,64.40
2022-10-18T16:02:27.632Z,64.40
2022-10-18T16:04:54.382Z,64.50
2022-10-18T16:07:20.952Z,65.00
2022-10-18T16:09:48.519Z,65.30
2022-10-18T16:12:15.080Z,65.40
2022-10-18T16:14:41.621Z,65.40
2022-10-18T16:17:16.543Z,65.30
2022-10-18T16:19:44.503Z,65.40
2022-10-18T16:24:40.394Z,66.00
2022-10-18T16:27:07.012Z,66.20
2022-10-18T16:29:33.554Z,66.30
2022-10-18T16:32:01.080Z,66.40
2022-10-18T16:34:27.874Z,66.60
2022-10-18T16:36:54.968Z,66.70
2022-10-18T16:39:22.644Z,66.90
2022-10-18T16:41:49.599Z,67.00
2022-10-18T16:44:17.068Z,67.10
2022-10-18T16:46:43.883Z,67.20
2022-10-18T16:49:25.470Z,67.30
2022-10-18T16:51:53.514Z,67.60
2022-10-18T16:54:20.556Z,67.50
2022-10-18T16:56:50.141Z,67.70
2022-10-18T16:59:28.973Z,67.90
2022-10-18T17:01:55.732Z,68.20
2022-10-18T17:04:22.420Z,68.30
2022-10-18T17:06:49.363Z,68.40
2022-10-18T17:09:16.181Z,68.50
2022-10-18T17:11:42.760Z,68.60
2022-10-18T17:14:09.379Z,68.70
2022-10-18T17:16:38.567Z,68.90
2022-10-18T17:19:10.377Z,69.00
2022-10-18T17:21:37.100Z,69.20
2022-10-18T17:24:05.882Z,69.20
2022-10-18T17:26:32.787Z,69.30
2022-10-18T17:29:05.931Z,69.50
2022-10-18T17:31:32.718Z,69.60
2022-10-18T17:34:01.453Z,69.70
2022-10-18T17:36:28.922Z,69.80
2022-10-18T17:38:56.011Z,70.60
2022-10-18T17:41:22.671Z,70.00
2022-10-18T17:43:49.279Z,70.00
2022-10-18T17:46:17.595Z,70.20
2022-10-18T17:48:44.190Z,70.40
2022-10-18T17:51:13.300Z,70.40
2022-10-18T17:53:40.191Z,70.50
2022-10-18T17:56:07.722Z,70.60
2022-10-18T17:58:34.809Z,70.60
2022-10-18T18:01:18.915Z,70.60
2022-10-18T18:03:47.787Z,71.60
2022-10-18T18:06:17.265Z,70.80
2022-10-18T18:08:44.666Z,70.80
2022-10-18T18:11:11.432Z,70.90
2022-10-18T18:13:38.047Z,71.00
2022-10-18T18:16:19.586Z,71.80
2022-10-18T18:18:48.378Z,71.30
2022-10-18T18:21:14.995Z,71.30
2022-10-18T18:23:41.668Z,71.40
2022-10-18T18:26:08.293Z,71.50
2022-10-18T18:28:36.168Z,71.60
2022-10-18T18:31:23.387Z,71.70
2022-10-18T18:33:51.610Z,71.90
2022-10-18T18:36:18.703Z,71.90
2022-10-18T18:38:45.755Z,71.80
2022-10-18T18:41:25.916Z,71.80
2022-10-18T18:44:01.536Z,71.80
2022-10-18T18:46:30.248Z,72.00
2022-10-18T18:48:57.700Z,72.10
2022-10-18T18:51:24.687Z,72.20
2022-10-18T18:53:51.881Z,72.30
2022-10-18T18:58:48.932Z,72.40
2022-10-18T19:01:23.470Z,73.30
2022-10-18T19:03:52.672Z,72.50
2022-10-18T19:06:30.665Z,72.60
2022-10-18T19:09:03.757Z,72.70
2022-10-18T19:11:37.663Z,72.80
2022-10-18T19:14:05.717Z,72.70
2022-10-18T19:16:41.611Z,72.70
2022-10-18T19:19:13.371Z,72.80
2022-10-18T19:21:46.093Z,72.80
2022-10-18T19:24:13.462Z,72.80
2022-10-18T19:26:45.948Z,72.90
2022-10-18T19:29:15.104Z,72.90
2022-10-18T19:31:42.535Z,73.00
2022-10-18T19:34:11.756Z,73.00
2022-10-18T19:36:40.195Z,73.00
2022-10-18T19:39:08.583Z,73.00
2022-10-18T19:41:35.285Z,73.10
2022-10-18T19:44:01.884Z,73.10
2022-10-18T19:46:28.672Z,73.20
2022-10-18T19:48:55.299Z,73.30
2022-10-18T19:51:26.848Z,73.30
2022-10-18T19:53:55.462Z,73.40
2022-10-18T19:56:23.897Z,73.50
2022-10-18T19:58:50.639Z,73.60
2022-10-18T20:01:18.423Z,73.70
2022-10-18T20:03:45.747Z,73.70
2022-10-18T20:06:12.658Z,73.80
2022-10-18T20:08:39.866Z,73.80
2022-10-18T20:11:09.688Z,73.90
2022-10-18T20:13:36.483Z,73.90
2022-10-18T20:16:05.413Z,74.00
2022-10-18T20:18:32.024Z,74.00
2022-10-18T20:20:58.740Z,74.00
2022-10-18T20:23:25.456Z,74.00
2022-10-18T20:25:59.884Z,74.10
2022-10-18T20:28:27.272Z,74.20
2022-10-18T20:31:05.289Z,74.20
2022-10-18T20:33:33.184Z,74.30
2022-10-18T20:36:08.463Z,74.30
2022-10-18T20:38:36.547Z,74.40
2022-10-18T20:41:18.898Z,74.40
2022-10-18T20:43:53.915Z,74.50
2022-10-18T20:46:21.310Z,74.60
2022-10-18T20:48:49.768Z,74.70
2022-10-18T20:51:17.136Z,74.80
2022-10-18T20:53:43.964Z,74.80
2022-10-18T20:56:13.719Z,75.00
2022-10-18T20:58:42.376Z,75.00
2022-10-18T21:01:20.719Z,75.10
2022-10-18T21:03:49.158Z,75.30
2022-10-18T21:06:24.993Z,75.40
2022-10-18T21:08:57.324Z,75.60
2022-10-18T21:11:25.497Z,75.60
2022-10-18T21:13:54.296Z,75.60
2022-10-18T21:16:20.979Z,75.60
2022-10-18T21:18:48.168Z,75.60
2022-10-18T21:21:18.091Z,75.60
2022-10-18T21:23:45.098Z,75.70
2022-10-18T21:26:20.416Z,75.70
2022-10-18T21:28:49.185Z,75.60
2022-10-18T21:31:43.323Z,75.70
2022-10-18T21:34:15.314Z,75.80
2022-10-18T21:36:43.984Z,75.80
2022-10-18T21:39:14.799Z,75.70
2022-10-18T21:41:42.548Z,75.60
2022-10-18T21:44:11.130Z,75.40
2022-10-18T21:46:39.333Z,75.40
2022-10-18T21:49:06.959Z,75.50
2022-10-18T21:51:33.544Z,75.50
2022-10-18T21:54:00.119Z,75.60
2022-10-18T21:56:29.693Z,75.50
2022-10-18T21:58:56.836Z,75.30
2022-10-18T22:01:32.518Z,75.30
2022-10-18T22:04:01.018Z,75.10
2022-10-18T22:06:30.087Z,75.20
2022-10-18T22:08:59.329Z,75.30
2022-10-18T22:11:32.139Z,75.40
2022-10-18T22:13:59.161Z,75.40
2022-10-18T22:16:26.208Z,75.40
2022-10-18T22:18:56.794Z,75.40
2022-10-18T22:21:23.438Z,75.40
2022-10-18T22:23:52.357Z,75.50
2022-10-18T22:26:28.020Z,75.70
2022-10-18T22:29:19.291Z,75.80
2022-10-18T22:31:48.739Z,75.80
2022-10-18T22:34:17.698Z,75.90
2022-10-18T22:36:44.719Z,75.90
2022-10-18T22:39:14.176Z,76.00
2022-10-18T22:41:41.885Z,76.00
2022-10-18T22:44:12.009Z,76.20
2022-10-18T22:46:39.595Z,76.20
2022-10-18T22:49:06.368Z,76.20
2022-10-18T22:51:33.263Z,76.20
2022-10-18T22:53:59.845Z,76.20
2022-10-18T22:56:26.474Z,76.30
2022-10-18T22:58:53.172Z,76.30
2022-10-18T23:01:21.885Z,76.20
2022-10-18T23:03:55.542Z,76.20
2022-10-18T23:06:25.091Z,76.20
2022-10-18T23:08:53.266Z,76.30
2022-10-18T23:11:20.690Z,76.30
2022-10-18T23:13:47.479Z,76.30
2022-10-18T23:16:14.398Z,76.40
2022-10-18T23:18:41.037Z,76.50
2022-10-18T23:21:09.841Z,76.60
2022-10-18T23:23:38.030Z,76.70
2022-10-18T23:26:06.702Z,76.80
2022-10-18T23:28:37.913Z,76.90
2022-10-18T23:31:18.026Z,76.90
2022-10-18T23:33:46.220Z,77.10
2022-10-18T23:36:12.952Z,77.10
2022-10-18T23:38:40.196Z,77.20
2022-10-18T23:41:08.570Z,77.30
2022-10-18T23:43:35.732Z,77.30
2022-10-18T23:46:02.365Z,77.40
2022-10-18T23:48:29.287Z,77.50
2022-10-18T23:50:56.087Z,77.60
2022-10-18T23:53:22.823Z,77.60
2022-10-18T23:55:53.812Z,77.60
2022-10-18T23:58:20.398Z,77.70
